createdAt,value
2023-11-01T00:00:52.606Z,0.00
2023-11-01T00:01:52.817Z,0.00
2023-11-01T00:02:53.119Z,0.00
2023-11-01T00:03:53.298Z,0.00
2023-11-01T00:04:53.475Z,0.00
2023-11-01T00:05:53.607Z,0.00
2023-11-01T00:06:53.807Z,0.00
2023-11-01T00:07:53.997Z,0.00
2023-11-01T00:08:54.194Z,0.00
2023-11-01T00:09:54.428Z,0.00
2023-11-01T00:10:54.611Z,0.00
2023-11-01T00:11:54.803Z,0.00
2023-11-01T00:12:54.996Z,0.00
2023-11-01T00:13:55.204Z,0.00
2023-11-01T00:14:55.439Z,0.00
2023-11-01T00:15:55.606Z,0.00
2023-11-01T00:16:55.824Z,0.00
2023-11-01T00:17:56.068Z,0.00
2023-11-01T00:18:56.214Z,0.00
2023-11-01T00:19:56.445Z,0.00
2023-11-01T00:20:56.622Z,0.00
2023-11-01T00:21:56.821Z,0.00
2023-11-01T00:22:57.015Z,0.00
2023-11-01T00:23:57.224Z,0.00
2023-11-01T00:24:57.464Z,0.00
2023-11-01T00:25:57.658Z,0.00
2023-11-01T00:26:57.878Z,0.00
2023-11-01T00:27:58.468Z,0.00
2023-11-01T00:28:58.281Z,0.00
2023-11-01T00:29:58.499Z,0.00
2023-11-01T00:30:59.078Z,0.00
2023-11-01T00:31:58.882Z,0.00
2023-11-01T00:32:59.126Z,0.00
2023-11-01T00:33:59.308Z,0.00
2023-11-01T00:34:59.514Z,0.00
2023-11-01T00:36:00.098Z,0.00
2023-11-01T00:37:00.338Z,0.00
2023-11-01T00:38:00.152Z,0.00
2023-11-01T00:39:00.308Z,0.00
2023-11-01T00:40:00.536Z,0.00
2023-11-01T00:41:00.707Z,0.00
2023-11-01T00:42:00.887Z,0.00
2023-11-01T00:43:01.115Z,0.00
2023-11-01T00:44:01.301Z,0.00
2023-11-01T00:45:01.524Z,0.00
2023-11-01T00:46:02.018Z,0.00
2023-11-01T00:47:01.949Z,0.00
2023-11-01T00:48:02.175Z,0.00
2023-11-01T00:49:02.309Z,0.00
2023-11-01T00:50:02.560Z,0.00
2023-11-01T00:51:02.715Z,0.00
2023-11-01T00:52:02.909Z,0.00
2023-11-01T00:53:03.116Z,0.00
2023-11-01T00:54:03.312Z,0.00
2023-11-01T00:55:03.555Z,0.00
2023-11-01T00:56:03.721Z,0.00
2023-11-01T00:57:03.925Z,0.00
2023-11-01T00:58:05.944Z,0.00
2023-11-01T00:59:04.335Z,0.00
2023-11-01T01:00:04.605Z,0.00
2023-11-01T01:01:06.723Z,0.00
2023-11-01T01:02:04.957Z,0.00
2023-11-01T01:03:05.243Z,0.00
2023-11-01T01:04:05.485Z,0.00
2023-11-01T01:05:05.585Z,0.00
2023-11-01T01:06:05.780Z,0.00
2023-11-01T01:07:06.367Z,0.00
2023-11-01T01:08:06.184Z,0.00
2023-11-01T01:09:06.764Z,0.00
2023-11-01T01:10:06.677Z,0.00
2023-11-01T01:11:06.779Z,0.00
2023-11-01T01:12:07.355Z,0.00
2023-11-01T01:13:07.170Z,0.00
2023-11-01T01:14:07.425Z,0.00
2023-11-01T01:15:07.628Z,0.00
2023-11-01T01:16:07.815Z,0.00
2023-11-01T01:17:08.002Z,0.00
2023-11-01T01:18:08.252Z,0.00
2023-11-01T01:19:08.400Z,0.00
2023-11-01T01:20:08.689Z,0.00
2023-11-01T01:21:08.805Z,0.00
2023-11-01T01:22:08.999Z,0.00
2023-11-01T01:23:09.227Z,0.00
2023-11-01T01:24:09.390Z,0.00
2023-11-01T01:25:09.623Z,0.00
2023-11-01T01:26:09.812Z,0.00
2023-11-01T01:27:09.995Z,0.00
2023-11-01T01:28:10.198Z,0.00
2023-11-01T01:29:10.406Z,0.00
2023-11-01T01:30:10.736Z,0.00
2023-11-01T01:31:10.823Z,0.00
2023-11-01T01:32:11.036Z,0.00
2023-11-01T01:33:11.269Z,0.00
2023-11-01T01:34:11.422Z,0.00
2023-11-01T01:35:11.673Z,0.00
2023-11-01T01:36:11.841Z,0.00
2023-11-01T01:37:12.025Z,0.00
2023-11-01T01:38:12.243Z,0.00
2023-11-01T01:39:12.462Z,0.00
2023-11-01T01:40:12.676Z,0.00
2023-11-01T01:41:12.886Z,0.00
2023-11-01T01:42:13.058Z,0.00
2023-11-01T01:43:13.323Z,0.00
2023-11-01T01:44:13.499Z,0.00
2023-11-01T01:45:13.705Z,0.00
2023-11-01T01:46:14.344Z,0.00
2023-11-01T01:47:14.122Z,0.00
2023-11-01T01:48:14.387Z,0.00
2023-11-01T01:49:14.488Z,0.00
2023-11-01T01:50:14.721Z,0.00
2023-11-01T01:51:14.891Z,0.00
2023-11-01T01:52:15.098Z,0.00
2023-11-01T01:53:15.387Z,0.00
2023-11-01T01:54:15.500Z,0.00
2023-11-01T01:55:15.731Z,0.00
2023-11-01T01:56:15.941Z,0.00
2023-11-01T01:57:16.126Z,0.00
2023-11-01T01:58:16.328Z,0.00
2023-11-01T01:59:16.569Z,0.00
2023-11-01T02:00:16.814Z,0.00
2023-11-01T02:01:16.957Z,0.00
2023-11-01T02:02:17.230Z,0.00
2023-11-01T02:03:17.449Z,0.00
2023-11-01T02:04:17.584Z,0.00
2023-11-01T02:05:17.837Z,0.00
2023-11-01T02:06:18.007Z,0.00
2023-11-01T02:07:18.216Z,0.00
2023-11-01T02:08:18.423Z,0.00
2023-11-01T02:09:18.624Z,0.00
2023-11-01T02:10:18.874Z,0.00
2023-11-01T02:11:19.057Z,0.00
2023-11-01T02:12:19.250Z,0.00
2023-11-01T02:13:19.464Z,0.00
2023-11-01T02:14:19.682Z,0.00
2023-11-01T02:15:19.897Z,0.00
2023-11-01T02:16:20.104Z,0.00
2023-11-01T02:17:20.310Z,0.00
2023-11-01T02:18:20.508Z,0.00
2023-11-01T02:19:20.728Z,0.00
2023-11-01T02:20:20.966Z,0.00
2023-11-01T02:21:21.546Z,0.00
2023-11-01T02:22:21.345Z,0.00
2023-11-01T02:23:21.566Z,0.00
2023-11-01T02:24:21.741Z,0.00
2023-11-01T02:25:21.981Z,0.00
2023-11-01T02:26:22.177Z,0.00
2023-11-01T02:27:22.360Z,0.00
2023-11-01T02:28:22.562Z,0.00
2023-11-01T02:29:22.789Z,0.00
2023-11-01T02:30:23.004Z,0.00
2023-11-01T02:31:23.238Z,0.00
2023-11-01T02:32:23.433Z,0.00
2023-11-01T02:33:23.610Z,0.00
2023-11-01T02:34:23.811Z,0.00
2023-11-01T02:35:24.123Z,0.00
2023-11-01T02:36:24.246Z,0.00
2023-11-01T02:37:24.458Z,0.00
2023-11-01T02:38:24.681Z,0.00
2023-11-01T02:39:24.872Z,0.00
2023-11-01T02:40:25.115Z,0.00
2023-11-01T02:41:25.308Z,0.00
2023-11-01T02:42:25.494Z,0.00
2023-11-01T02:43:25.712Z,0.00
2023-11-01T02:44:25.959Z,0.00
2023-11-01T02:45:26.161Z,0.00
2023-11-01T02:46:26.331Z,0.00
2023-11-01T02:47:26.590Z,0.00
2023-11-01T02:48:26.754Z,0.00
2023-11-01T02:49:26.967Z,0.00
2023-11-01T02:50:27.222Z,0.00
2023-11-01T02:51:27.376Z,0.00
2023-11-01T02:52:27.616Z,0.00
2023-11-01T02:53:27.834Z,0.00
2023-11-01T02:54:28.018Z,0.00
2023-11-01T02:55:28.265Z,0.00
2023-11-01T02:56:28.452Z,0.00
2023-11-01T02:57:28.645Z,0.00
2023-11-01T02:58:29.241Z,0.00
2023-11-01T02:59:29.097Z,0.00
2023-11-01T03:00:29.305Z,0.00
2023-11-01T03:01:29.529Z,0.00
2023-11-01T03:02:29.746Z,0.00
2023-11-01T03:03:30.061Z,0.00
2023-11-01T03:04:30.103Z,0.00
2023-11-01T03:05:30.396Z,0.00
2023-11-01T03:06:30.545Z,0.00
2023-11-01T03:07:30.743Z,0.00
2023-11-01T03:08:30.966Z,0.00
2023-11-01T03:09:31.144Z,0.00
2023-11-01T03:10:31.398Z,0.00
2023-11-01T03:11:31.628Z,0.00
2023-11-01T03:12:31.794Z,0.00
2023-11-01T03:13:32.002Z,0.00
2023-11-01T03:14:32.230Z,0.00
2023-11-01T03:15:32.465Z,0.00
2023-11-01T03:16:32.667Z,0.00
2023-11-01T03:17:32.947Z,0.00
2023-11-01T03:18:33.075Z,0.00
2023-11-01T03:19:33.278Z,0.00
2023-11-01T03:20:33.531Z,0.00
2023-11-01T03:21:33.726Z,0.00
2023-11-01T03:22:33.929Z,0.00
2023-11-01T03:23:34.158Z,0.00
2023-11-01T03:24:34.345Z,0.00
2023-11-01T03:25:34.574Z,0.00
2023-11-01T03:26:34.809Z,0.00
2023-11-01T03:27:35.003Z,0.00
2023-11-01T03:28:35.629Z,0.00
2023-11-01T03:29:35.458Z,0.00
2023-11-01T03:30:35.660Z,0.00
2023-11-01T03:31:35.846Z,0.00
2023-11-01T03:32:36.152Z,0.00
2023-11-01T03:33:36.314Z,0.00
2023-11-01T03:34:36.483Z,0.00
2023-11-01T03:35:36.740Z,0.00
2023-11-01T03:36:36.910Z,0.00
2023-11-01T03:37:37.148Z,0.00
2023-11-01T03:38:37.444Z,0.00
2023-11-01T03:39:37.558Z,0.00
2023-11-01T03:40:37.808Z,0.00
2023-11-01T03:41:38.002Z,0.00
2023-11-01T03:42:38.202Z,0.00
2023-11-01T03:43:38.413Z,0.00
2023-11-01T03:44:38.748Z,0.00
2023-11-01T03:45:38.895Z,0.00
2023-11-01T03:46:39.144Z,0.00
2023-11-01T03:47:39.394Z,0.00
2023-11-01T03:48:39.507Z,0.00
2023-11-01T03:49:39.738Z,0.00
2023-11-01T03:50:40.012Z,0.00
2023-11-01T03:51:40.184Z,0.00
2023-11-01T03:52:40.400Z,0.00
2023-11-01T03:53:40.685Z,0.00
2023-11-01T03:54:40.839Z,0.00
2023-11-01T03:55:41.160Z,0.00
2023-11-01T03:56:41.272Z,0.00
2023-11-01T03:57:41.477Z,0.00
2023-11-01T03:58:41.706Z,0.00
2023-11-01T03:59:41.933Z,0.00
2023-11-01T04:00:42.172Z,0.00
2023-11-01T04:01:42.387Z,0.00
2023-11-01T04:02:42.624Z,0.00
2023-11-01T04:03:42.823Z,0.00
2023-11-01T04:04:42.992Z,0.00
2023-11-01T04:05:43.292Z,0.00
2023-11-01T04:06:43.426Z,0.00
2023-11-01T04:07:43.632Z,0.00
2023-11-01T04:08:43.854Z,0.00
2023-11-01T04:09:44.072Z,0.00
2023-11-01T04:10:44.307Z,0.00
2023-11-01T04:11:44.541Z,0.00
2023-11-01T04:12:44.694Z,0.00
2023-11-01T04:13:44.921Z,0.00
2023-11-01T04:14:45.162Z,0.00
2023-11-01T04:15:45.399Z,0.00
2023-11-01T04:16:45.557Z,0.00
2023-11-01T04:17:45.860Z,0.00
2023-11-01T04:18:45.991Z,0.00
2023-11-01T04:19:46.312Z,0.00
2023-11-01T04:20:46.553Z,0.00
2023-11-01T04:21:46.655Z,0.00
2023-11-01T04:22:46.889Z,0.00
2023-11-01T04:23:47.143Z,0.00
2023-11-01T04:24:47.331Z,0.00
2023-11-01T04:25:47.588Z,0.00
2023-11-01T04:26:47.782Z,0.00
2023-11-01T04:27:48.380Z,0.00
2023-11-01T04:28:48.247Z,0.00
2023-11-01T04:29:48.426Z,0.00
2023-11-01T04:30:48.641Z,0.00
2023-11-01T04:31:48.895Z,0.00
2023-11-01T04:32:49.103Z,0.00
2023-11-01T04:33:49.270Z,0.00
2023-11-01T04:34:49.481Z,0.00
2023-11-01T04:35:49.747Z,0.00
2023-11-01T04:36:49.925Z,0.00
2023-11-01T04:37:50.150Z,0.00
2023-11-01T04:38:50.414Z,0.00
2023-11-01T04:39:50.999Z,0.00
2023-11-01T04:40:50.821Z,0.00
2023-11-01T04:41:51.034Z,0.00
2023-11-01T04:42:51.200Z,0.00
2023-11-01T04:43:51.420Z,0.00
2023-11-01T04:44:51.648Z,0.00
2023-11-01T04:45:51.942Z,0.00
2023-11-01T04:46:52.084Z,0.00
2023-11-01T04:47:52.354Z,0.00
2023-11-01T04:48:52.509Z,0.00
2023-11-01T04:49:52.731Z,0.00
2023-11-01T04:50:52.988Z,0.00
2023-11-01T04:51:53.150Z,0.00
2023-11-01T04:52:53.374Z,0.00
2023-11-01T04:53:53.637Z,0.00
2023-11-01T04:54:53.797Z,0.00
2023-11-01T04:55:54.038Z,0.00
2023-11-01T04:56:54.269Z,0.00
2023-11-01T04:57:54.451Z,0.00
2023-11-01T04:58:54.659Z,0.00
2023-11-01T04:59:55.291Z,0.00
2023-11-01T05:00:55.151Z,0.00
2023-11-01T05:01:55.392Z,0.00
2023-11-01T05:02:55.566Z,0.00
2023-11-01T05:03:55.781Z,0.00
2023-11-01T05:04:55.985Z,0.00
2023-11-01T05:05:56.236Z,0.00
2023-11-01T05:06:56.401Z,0.00
2023-11-01T05:07:56.627Z,0.00
2023-11-01T05:08:56.847Z,0.00
2023-11-01T05:09:57.066Z,0.00
2023-11-01T05:10:57.316Z,0.00
2023-11-01T05:11:57.503Z,0.00
2023-11-01T05:12:57.720Z,0.00
2023-11-01T05:13:57.935Z,0.00
2023-11-01T05:14:58.155Z,0.00
2023-11-01T05:15:58.779Z,0.00
2023-11-01T05:16:58.582Z,0.00
2023-11-01T05:17:58.880Z,0.00
2023-11-01T05:18:59.040Z,0.00
2023-11-01T05:19:59.261Z,0.00
2023-11-01T05:20:59.510Z,0.00
2023-11-01T05:21:59.694Z,0.00
2023-11-01T05:22:59.908Z,0.00
2023-11-01T05:24:00.154Z,0.00
2023-11-01T05:25:00.343Z,0.00
2023-11-01T05:26:00.592Z,0.00
2023-11-01T05:27:00.767Z,0.00
2023-11-01T05:28:01.034Z,0.00
2023-11-01T05:29:01.197Z,0.00
2023-11-01T05:30:01.424Z,0.00
2023-11-01T05:31:01.673Z,0.00
2023-11-01T05:32:01.850Z,0.00
2023-11-01T05:33:02.174Z,0.00
2023-11-01T05:34:02.284Z,0.00
2023-11-01T05:35:02.513Z,0.00
2023-11-01T05:36:02.749Z,0.00
2023-11-01T05:37:02.940Z,0.00
2023-11-01T05:38:03.161Z,0.00
2023-11-01T05:39:03.362Z,0.00
2023-11-01T05:40:03.598Z,0.00
2023-11-01T05:41:03.829Z,0.00
2023-11-01T05:42:04.021Z,0.00
2023-11-01T05:43:04.244Z,0.00
2023-11-01T05:44:04.521Z,0.00
2023-11-01T05:45:04.631Z,0.00
2023-11-01T05:46:04.906Z,0.00
2023-11-01T05:47:05.124Z,0.00
2023-11-01T05:48:05.383Z,0.00
2023-11-01T05:49:05.526Z,0.00
2023-11-01T05:50:08.437Z,0.00
2023-11-01T05:51:05.944Z,0.00
2023-11-01T05:52:06.179Z,0.00
2023-11-01T05:53:06.352Z,0.00
2023-11-01T05:54:06.552Z,0.00
2023-11-01T05:55:14.131Z,0.00
2023-11-01T05:56:10.266Z,0.00
2023-11-01T05:57:07.206Z,0.00
2023-11-01T05:58:07.428Z,0.00
2023-11-01T05:59:07.655Z,0.00
2023-11-01T06:00:07.889Z,0.00
2023-11-01T06:01:08.260Z,0.00
2023-11-01T06:02:08.353Z,0.00
2023-11-01T06:03:08.816Z,0.00
2023-11-01T06:04:08.837Z,0.00
2023-11-01T06:05:08.975Z,0.00
2023-11-01T06:06:09.239Z,0.00
2023-11-01T06:07:09.420Z,0.00
2023-11-01T06:08:09.635Z,0.00
2023-11-01T06:09:09.868Z,0.00
2023-11-01T06:10:10.096Z,0.00
2023-11-01T06:11:10.319Z,0.00
2023-11-01T06:12:10.507Z,0.00
2023-11-01T06:13:10.743Z,0.00
2023-11-01T06:14:10.955Z,0.00
2023-11-01T06:15:11.295Z,0.00
2023-11-01T06:16:11.419Z,0.00
2023-11-01T06:17:11.626Z,0.00
2023-11-01T06:18:12.301Z,0.00
2023-11-01T06:19:12.074Z,0.00
2023-11-01T06:20:12.286Z,0.00
2023-11-01T06:21:12.532Z,0.00
2023-11-01T06:22:12.728Z,0.00
2023-11-01T06:23:13.365Z,0.00
2023-11-01T06:24:13.182Z,0.00
2023-11-01T06:25:13.399Z,5.62
2023-11-01T06:26:13.626Z,5.62
2023-11-01T06:27:13.841Z,5.62
2023-11-01T06:28:14.055Z,5.62
2023-11-01T06:29:14.283Z,5.62
2023-11-01T06:30:14.502Z,5.62
2023-11-01T06:31:14.750Z,5.62
2023-11-01T06:32:14.941Z,5.62
2023-11-01T06:33:15.229Z,5.62
2023-11-01T06:34:15.429Z,5.62
2023-11-01T06:35:15.617Z,5.62
2023-11-01T06:36:15.863Z,5.62
2023-11-01T06:37:16.067Z,5.62
2023-11-01T06:38:16.282Z,11.25
2023-11-01T06:39:16.508Z,11.25
2023-11-01T06:40:16.726Z,11.25
2023-11-01T06:41:17.010Z,11.25
2023-11-01T06:42:17.164Z,11.25
2023-11-01T06:43:17.409Z,11.25
2023-11-01T06:44:17.640Z,11.25
2023-11-01T06:45:17.860Z,11.25
2023-11-01T06:46:18.163Z,11.25
2023-11-01T06:47:18.296Z,11.25
2023-11-01T06:48:18.598Z,11.25
2023-11-01T06:49:18.754Z,16.88
2023-11-01T06:50:19.007Z,16.88
2023-11-01T06:51:19.218Z,16.88
2023-11-01T06:52:19.419Z,16.88
2023-11-01T06:53:19.673Z,16.88
2023-11-01T06:54:19.845Z,16.88
2023-11-01T06:55:20.079Z,16.88
2023-11-01T06:56:23.139Z,16.88
2023-11-01T06:57:20.536Z,16.88
2023-11-01T06:58:20.744Z,16.88
2023-11-01T06:59:21.380Z,16.88
2023-11-01T07:00:21.154Z,16.88
2023-11-01T07:01:21.598Z,22.50
2023-11-01T07:02:21.616Z,22.50
2023-11-01T07:03:21.921Z,22.50
2023-11-01T07:04:22.050Z,22.50
2023-11-01T07:05:22.281Z,22.50
2023-11-01T07:06:22.512Z,22.50
2023-11-01T07:07:22.681Z,22.50
2023-11-01T07:08:22.918Z,22.50
2023-11-01T07:09:23.118Z,22.50
2023-11-01T07:10:23.334Z,28.12
2023-11-01T07:11:23.648Z,28.12
2023-11-01T07:12:23.769Z,28.12
2023-11-01T07:13:25.893Z,28.12
2023-11-01T07:14:24.237Z,28.12
2023-11-01T07:15:24.446Z,28.12
2023-11-01T07:16:24.958Z,28.12
2023-11-01T07:17:24.905Z,28.12
2023-11-01T07:18:25.202Z,28.12
2023-11-01T07:19:25.333Z,28.12
2023-11-01T07:20:25.585Z,33.75
2023-11-01T07:21:25.816Z,33.75
2023-11-01T07:22:25.992Z,33.75
2023-11-01T07:23:26.231Z,33.75
2023-11-01T07:24:26.444Z,33.75
2023-11-01T07:25:27.068Z,33.75
2023-11-01T07:26:26.920Z,33.75
2023-11-01T07:27:27.102Z,33.75
2023-11-01T07:28:27.305Z,33.75
2023-11-01T07:29:27.551Z,33.75
2023-11-01T07:30:27.755Z,39.38
2023-11-01T07:31:28.007Z,39.38
2023-11-01T07:32:28.254Z,39.38
2023-11-01T07:33:28.446Z,39.38
2023-11-01T07:34:28.609Z,39.38
2023-11-01T07:35:28.875Z,39.38
2023-11-01T07:36:29.085Z,39.38
2023-11-01T07:37:29.254Z,45.00
2023-11-01T07:38:29.503Z,45.00
2023-11-01T07:39:29.690Z,45.00
2023-11-01T07:40:29.903Z,45.00
2023-11-01T07:41:30.165Z,45.00
2023-11-01T07:42:30.319Z,50.62
2023-11-01T07:43:30.535Z,50.62
2023-11-01T07:44:30.779Z,50.62
2023-11-01T07:45:30.968Z,50.62
2023-11-01T07:46:31.207Z,50.62
2023-11-01T07:47:31.439Z,50.62
2023-11-01T07:48:31.741Z,50.62
2023-11-01T07:49:31.827Z,56.25
2023-11-01T07:50:32.061Z,56.25
2023-11-01T07:51:32.298Z,56.25
2023-11-01T07:52:32.501Z,56.25
2023-11-01T07:53:32.728Z,56.25
2023-11-01T07:54:32.936Z,56.25
2023-11-01T07:55:33.145Z,61.88
2023-11-01T07:56:33.410Z,61.88
2023-11-01T07:57:33.573Z,61.88
2023-11-01T07:58:33.780Z,67.50
2023-11-01T07:59:34.017Z,67.50
2023-11-01T08:00:34.203Z,67.50
2023-11-01T08:01:34.549Z,67.50
2023-11-01T08:02:34.783Z,67.50
2023-11-01T08:03:35.094Z,73.12
2023-11-01T08:04:35.368Z,73.12
2023-11-01T08:05:35.359Z,73.12
2023-11-01T08:06:35.541Z,73.12
2023-11-01T08:07:35.719Z,73.12
2023-11-01T08:08:35.974Z,78.75
2023-11-01T08:09:36.140Z,78.75
2023-11-01T08:10:36.351Z,84.38
2023-11-01T08:11:36.632Z,84.38
2023-11-01T08:12:36.765Z,90.00
2023-11-01T08:13:36.969Z,90.00
2023-11-01T08:14:37.185Z,84.38
2023-11-01T08:15:37.390Z,84.38
2023-11-01T08:16:37.683Z,78.75
2023-11-01T08:17:37.854Z,67.50
2023-11-01T08:18:37.990Z,90.00
2023-11-01T08:19:38.196Z,84.38
2023-11-01T08:20:38.431Z,67.50
2023-11-01T08:21:38.664Z,90.00
2023-11-01T08:22:38.804Z,78.75
2023-11-01T08:23:39.018Z,84.38
2023-11-01T08:24:39.594Z,61.88
2023-11-01T08:25:39.390Z,61.88
2023-11-01T08:26:39.752Z,95.62
2023-11-01T08:27:39.799Z,73.12
2023-11-01T08:28:39.996Z,90.00
2023-11-01T08:29:40.226Z,73.12
2023-11-01T08:30:40.390Z,95.62
2023-11-01T08:31:40.651Z,90.00
2023-11-01T08:32:40.853Z,90.00
2023-11-01T08:33:41.133Z,101.25
2023-11-01T08:34:41.233Z,106.88
2023-11-01T08:35:41.402Z,78.75
2023-11-01T08:36:41.605Z,67.50
2023-11-01T08:37:41.781Z,67.50
2023-11-01T08:38:41.994Z,73.12
2023-11-01T08:39:42.555Z,78.75
2023-11-01T08:40:42.384Z,101.25
2023-11-01T08:41:42.751Z,112.50
2023-11-01T08:42:42.787Z,112.50
2023-11-01T08:43:42.981Z,84.38
2023-11-01T08:44:43.201Z,67.50
2023-11-01T08:45:43.374Z,78.75
2023-11-01T08:46:43.606Z,78.75
2023-11-01T08:47:43.924Z,78.75
2023-11-01T08:48:43.979Z,95.62
2023-11-01T08:49:44.178Z,84.38
2023-11-01T08:50:44.407Z,84.38
2023-11-01T08:51:44.610Z,78.75
2023-11-01T08:52:44.920Z,78.75
2023-11-01T08:53:44.999Z,84.38
2023-11-01T08:54:45.158Z,78.75
2023-11-01T08:55:45.382Z,90.00
2023-11-01T08:56:45.830Z,84.38
2023-11-01T08:57:45.769Z,78.75
2023-11-01T08:58:46.338Z,84.38
2023-11-01T08:59:46.200Z,118.12
2023-11-01T09:00:48.469Z,84.38
2023-11-01T09:01:46.661Z,112.50
2023-11-01T09:02:47.216Z,101.25
2023-11-01T09:03:47.045Z,101.25
2023-11-01T09:04:47.176Z,123.75
2023-11-01T09:05:47.469Z,95.62
2023-11-01T09:06:47.600Z,123.75
2023-11-01T09:07:49.539Z,106.88
2023-11-01T09:08:48.429Z,84.38
2023-11-01T09:09:48.195Z,84.38
2023-11-01T09:10:50.394Z,95.62
2023-11-01T09:11:48.667Z,112.50
2023-11-01T09:12:48.829Z,112.50
2023-11-01T09:13:48.990Z,112.50
2023-11-01T09:14:49.222Z,106.88
2023-11-01T09:15:49.390Z,78.75
2023-11-01T09:16:49.647Z,101.25
2023-11-01T09:17:49.855Z,101.25
2023-11-01T09:18:49.995Z,95.62
2023-11-01T09:19:50.226Z,84.38
2023-11-01T09:20:50.465Z,95.62
2023-11-01T09:21:50.624Z,95.62
2023-11-01T09:22:50.800Z,84.38
2023-11-01T09:23:51.137Z,95.62
2023-11-01T09:24:51.211Z,95.62
2023-11-01T09:25:51.403Z,90.00
2023-11-01T09:26:51.731Z,90.00
2023-11-01T09:27:51.818Z,95.62
2023-11-01T09:28:52.018Z,90.00
2023-11-01T09:29:52.226Z,95.62
2023-11-01T09:30:52.400Z,90.00
2023-11-01T09:31:52.632Z,73.12
2023-11-01T09:32:52.894Z,78.75
2023-11-01T09:33:53.225Z,90.00
2023-11-01T09:34:53.746Z,95.62
2023-11-01T09:35:53.464Z,95.62
2023-11-01T09:36:53.665Z,95.62
2023-11-01T09:37:53.837Z,84.38
2023-11-01T09:38:54.471Z,78.75
2023-11-01T09:39:54.225Z,73.12
2023-11-01T09:40:54.430Z,73.12
2023-11-01T09:41:54.781Z,84.38
2023-11-01T09:42:54.836Z,90.00
2023-11-01T09:43:55.035Z,95.62
2023-11-01T09:44:55.276Z,101.25
2023-11-01T09:45:55.440Z,106.88
2023-11-01T09:46:55.702Z,106.88
2023-11-01T09:47:55.957Z,112.50
2023-11-01T09:48:56.036Z,106.88
2023-11-01T09:49:56.271Z,101.25
2023-11-01T09:50:56.452Z,106.88
2023-11-01T09:51:56.658Z,106.88
2023-11-01T09:52:56.839Z,112.50
2023-11-01T09:53:57.051Z,118.12
2023-11-01T09:54:57.240Z,118.12
2023-11-01T09:55:57.433Z,118.12
2023-11-01T09:56:57.708Z,118.12
2023-11-01T09:57:57.824Z,123.75
2023-11-01T09:58:58.022Z,123.75
2023-11-01T09:59:58.248Z,123.75
2023-11-01T10:00:58.436Z,123.75
2023-11-01T10:01:58.629Z,123.75
2023-11-01T10:02:58.868Z,123.75
2023-11-01T10:03:58.990Z,123.75
2023-11-01T10:04:59.228Z,123.75
2023-11-01T10:05:59.477Z,123.75
2023-11-01T10:06:59.624Z,123.75
2023-11-01T10:07:59.800Z,129.38
2023-11-01T10:09:00.419Z,129.38
2023-11-01T10:10:00.268Z,135.00
2023-11-01T10:11:00.396Z,135.00
2023-11-01T10:12:00.687Z,129.38
2023-11-01T10:13:00.781Z,129.38
2023-11-01T10:14:00.972Z,123.75
2023-11-01T10:15:01.204Z,118.12
2023-11-01T10:16:01.386Z,112.50
2023-11-01T10:17:01.579Z,112.50
2023-11-01T10:18:02.254Z,112.50
2023-11-01T10:19:04.402Z,118.12
2023-11-01T10:20:04.312Z,123.75
2023-11-01T10:21:02.378Z,123.75
2023-11-01T10:22:02.652Z,123.75
2023-11-01T10:23:02.702Z,129.38
2023-11-01T10:24:02.910Z,123.75
2023-11-01T10:25:03.085Z,118.12
2023-11-01T10:26:03.260Z,135.00
2023-11-01T10:27:03.507Z,123.75
2023-11-01T10:28:03.635Z,112.50
2023-11-01T10:29:03.817Z,112.50
2023-11-01T10:30:04.077Z,106.88
2023-11-01T10:31:04.194Z,106.88
2023-11-01T10:32:04.407Z,112.50
2023-11-01T10:33:04.643Z,123.75
2023-11-01T10:34:04.836Z,129.38
2023-11-01T10:35:04.935Z,135.00
2023-11-01T10:36:05.234Z,135.00
2023-11-01T10:37:05.324Z,140.62
2023-11-01T10:38:05.470Z,140.62
2023-11-01T10:39:05.696Z,140.62
2023-11-01T10:40:05.832Z,140.62
2023-11-01T10:41:06.018Z,129.38
2023-11-01T10:42:06.366Z,123.75
2023-11-01T10:43:06.761Z,135.00
2023-11-01T10:44:06.601Z,146.25
2023-11-01T10:45:07.151Z,151.88
2023-11-01T10:46:06.954Z,151.88
2023-11-01T10:47:07.136Z,151.88
2023-11-01T10:48:07.495Z,151.88
2023-11-01T10:49:07.468Z,146.25
2023-11-01T10:50:07.654Z,146.25
2023-11-01T10:51:08.254Z,146.25
2023-11-01T10:52:08.032Z,140.62
2023-11-01T10:53:08.199Z,140.62
2023-11-01T10:54:08.430Z,140.62
2023-11-01T10:55:08.558Z,140.62
2023-11-01T10:56:08.732Z,140.62
2023-11-01T10:57:09.435Z,146.25
2023-11-01T10:58:09.090Z,140.62
2023-11-01T10:59:09.253Z,135.00
2023-11-01T11:00:09.494Z,129.38
2023-11-01T11:01:09.605Z,129.38
2023-11-01T11:02:09.795Z,123.75
2023-11-01T11:03:10.154Z,123.75
2023-11-01T11:04:10.360Z,123.75
2023-11-01T11:05:10.331Z,123.75
2023-11-01T11:06:10.462Z,118.12
2023-11-01T11:07:19.477Z,118.12
2023-11-01T11:08:11.830Z,118.12
2023-11-01T11:09:10.961Z,112.50
2023-11-01T11:10:11.165Z,112.50
2023-11-01T11:11:11.303Z,118.12
2023-11-01T11:12:11.677Z,118.12
2023-11-01T11:13:11.973Z,118.12
2023-11-01T11:14:11.812Z,118.12
2023-11-01T11:15:12.006Z,112.50
2023-11-01T11:16:12.228Z,106.88
2023-11-01T11:17:12.378Z,106.88
2023-11-01T11:18:12.526Z,112.50
2023-11-01T11:19:12.697Z,112.50
2023-11-01T11:20:12.942Z,112.50
2023-11-01T11:21:13.048Z,112.50
2023-11-01T11:22:13.260Z,112.50
2023-11-01T11:23:13.399Z,118.12
2023-11-01T11:24:13.563Z,118.12
2023-11-01T11:25:14.105Z,118.12
2023-11-01T11:26:13.975Z,118.12
2023-11-01T11:27:14.132Z,118.12
2023-11-01T11:28:14.264Z,123.75
2023-11-01T11:29:14.428Z,123.75
2023-11-01T11:30:14.626Z,123.75
2023-11-01T11:31:14.830Z,123.75
2023-11-01T11:32:14.990Z,129.38
2023-11-01T11:33:15.257Z,129.38
2023-11-01T11:34:15.315Z,129.38
2023-11-01T11:35:15.493Z,129.38
2023-11-01T11:36:15.690Z,123.75
2023-11-01T11:37:15.870Z,123.75
2023-11-01T11:38:16.744Z,123.75
2023-11-01T11:39:16.200Z,123.75
2023-11-01T11:40:16.371Z,123.75
2023-11-01T11:41:16.554Z,118.12
2023-11-01T11:42:17.781Z,112.50
2023-11-01T11:43:16.896Z,118.12
2023-11-01T11:44:17.068Z,118.12
2023-11-01T11:45:17.232Z,123.75
2023-11-01T11:46:17.441Z,123.75
2023-11-01T11:47:17.597Z,129.38
2023-11-01T11:48:17.772Z,129.38
2023-11-01T11:49:17.928Z,129.38
2023-11-01T11:50:18.099Z,123.75
2023-11-01T11:51:18.274Z,123.75
2023-11-01T11:52:18.507Z,123.75
2023-11-01T11:53:19.040Z,123.75
2023-11-01T11:54:18.822Z,118.12
2023-11-01T11:55:18.962Z,112.50
2023-11-01T11:56:19.125Z,106.88
2023-11-01T11:57:19.339Z,106.88
2023-11-01T11:58:19.504Z,106.88
2023-11-01T11:59:19.653Z,106.88
2023-11-01T12:00:19.823Z,106.88
2023-11-01T12:01:20.049Z,112.50
2023-11-01T12:02:20.188Z,118.12
2023-11-01T12:03:20.808Z,112.50
2023-11-01T12:04:20.934Z,106.88
2023-11-01T12:05:20.684Z,112.50
2023-11-01T12:06:20.861Z,112.50
2023-11-01T12:07:21.052Z,112.50
2023-11-01T12:08:21.196Z,112.50
2023-11-01T12:09:22.101Z,106.88
2023-11-01T12:10:21.549Z,106.88
2023-11-01T12:11:21.720Z,112.50
2023-11-01T12:12:21.937Z,123.75
2023-11-01T12:13:22.069Z,123.75
2023-11-01T12:14:22.245Z,129.38
2023-11-01T12:15:22.440Z,129.38
2023-11-01T12:16:22.609Z,135.00
2023-11-01T12:17:22.790Z,129.38
2023-11-01T12:18:23.033Z,123.75
2023-11-01T12:19:23.115Z,129.38
2023-11-01T12:20:23.286Z,118.12
2023-11-01T12:21:23.460Z,112.50
2023-11-01T12:22:23.669Z,106.88
2023-11-01T12:23:23.815Z,112.50
2023-11-01T12:24:24.000Z,106.88
2023-11-01T12:25:24.177Z,118.12
2023-11-01T12:26:24.355Z,106.88
2023-11-01T12:27:24.555Z,106.88
2023-11-01T12:28:24.699Z,106.88
2023-11-01T12:29:24.873Z,106.88
2023-11-01T12:30:25.031Z,106.88
2023-11-01T12:31:25.214Z,106.88
2023-11-01T12:32:25.459Z,106.88
2023-11-01T12:33:25.628Z,118.12
2023-11-01T12:34:25.779Z,101.25
2023-11-01T12:35:25.893Z,95.62
2023-11-01T12:36:26.056Z,101.25
2023-11-01T12:37:26.246Z,106.88
2023-11-01T12:38:26.403Z,95.62
2023-11-01T12:39:26.556Z,112.50
2023-11-01T12:40:26.739Z,90.00
2023-11-01T12:41:26.913Z,84.38
2023-11-01T12:42:27.139Z,112.50
2023-11-01T12:43:27.256Z,101.25
2023-11-01T12:44:27.458Z,95.62
2023-11-01T12:45:27.619Z,84.38
2023-11-01T12:46:27.806Z,78.75
2023-11-01T12:47:28.003Z,78.75
2023-11-01T12:48:28.285Z,78.75
2023-11-01T12:49:28.328Z,95.62
2023-11-01T12:50:28.642Z,73.12
2023-11-01T12:51:28.680Z,73.12
2023-11-01T12:52:28.884Z,78.75
2023-11-01T12:53:29.061Z,84.38
2023-11-01T12:54:29.215Z,78.75
2023-11-01T12:55:29.536Z,84.38
2023-11-01T12:56:29.628Z,84.38
2023-11-01T12:57:29.797Z,90.00
2023-11-01T12:58:29.933Z,84.38
2023-11-01T12:59:30.149Z,84.38
2023-11-01T13:00:30.853Z,84.38
2023-11-01T13:01:30.548Z,84.38
2023-11-01T13:02:30.707Z,84.38